Time;durP1;ratioP1;P1;durP2;ratioP2;P2;SDS_P1;SDS_P2;PMS_P1;PMS_P2;Temp;Humidity;BMP_temperature;BMP_pressure;BME280_temperature;BME280_humidity;BME280_pressure;Samples;Min_cycle;Max_cycle;Signal;HPM_P1;HPM_P2
2020/12/21 04:52:07;;;;;;;42.90;38.30;;;5.00;99.90;;;;;;5016243;23;21171;-74
2020/12/21 04:54:33;;;;;;;42.70;38.80;;;5.00;99.90;;;;;;4996363;28;20458;-87
2020/12/21 04:56:59;;;;;;;43.93;39.67;;;5.10;99.90;;;;;;4992602;28;20983;-85
2020/12/21 04:59:26;;;;;;;42.80;39.10;;;5.10;99.90;;;;;;4998070;28;20498;-85
2020/12/21 05:01:55;;;;;;;45.60;41.30;;;5.20;99.90;;;;;;4999896;28;20531;-85
2020/12/21 05:04:21;;;;;;;42.03;38.07;;;5.30;99.90;;;;;;4993055;28;20455;-85
2020/12/21 05:06:51;;;;;;;42.53;38.63;;;5.40;99.90;;;;;;4992642;28;20476;-85
2020/12/21 05:09:21;;;;;;;44.47;40.10;;;5.50;99.90;;;;;;5008321;28;20495;-87
2020/12/21 05:11:54;;;;;;;45.87;39.37;;;5.40;99.90;;;;;;5008884;28;20467;-88
2020/12/21 05:14:30;;;;;;;42.63;38.87;;;5.40;99.90;;;;;;5007462;28;20453;-89
2020/12/21 05:16:56;;;;;;;43.27;39.43;;;5.40;99.90;;;;;;5006107;28;20426;-90
2020/12/21 05:19:23;;;;;;;41.87;38.20;;;5.40;99.90;;;;;;5008716;28;20464;-89
2020/12/21 05:21:54;;;;;;;44.53;40.23;;;5.50;99.90;;;;;;5011877;28;20457;-89
2020/12/21 05:24:22;;;;;;;43.83;39.80;;;5.40;99.90;;;;;;5005664;28;20473;-86
2020/12/21 05:26:49;;;;;;;42.30;38.43;;;5.40;99.90;;;;;;4997712;28;20455;-86
2020/12/21 05:29:24;;;;;;;42.30;38.40;;;5.40;99.90;;;;;;5002400;28;20521;-87
2020/12/21 05:31:50;;;;;;;41.77;37.60;;;5.40;99.90;;;;;;4996715;28;20965;-86
2020/12/21 05:34:24;;;;;;;44.17;39.77;;;5.40;99.90;;;;;;4993177;28;20470;-83
2020/12/21 05:36:51;;;;;;;41.63;37.77;;;5.40;99.90;;;;;;4992640;28;20457;-83
2020/12/21 05:39:17;;;;;;;44.87;40.63;;;5.30;99.90;;;;;;4992277;28;20457;-83
2020/12/21 05:41:44;;;;;;;45.17;41.07;;;5.30;99.90;;;;;;4991865;28;20964;-82
2020/12/21 05:44:11;;;;;;;39.43;36.03;;;5.30;99.90;;;;;;4991765;28;20458;-80
2020/12/21 05:46:37;;;;;;;43.83;39.60;;;5.30;99.90;;;;;;4991741;28;20453;-81
2020/12/21 05:49:04;;;;;;;41.00;37.17;;;5.30;99.90;;;;;;4998248;28;20519;-84
2020/12/21 05:51:33;;;;;;;42.00;38.20;;;5.40;99.90;;;;;;5011296;28;20495;-82
2020/12/21 05:54:01;;;;;;;42.50;38.60;;;5.30;99.90;;;;;;5011394;28;20466;-81
2020/12/21 05:56:28;;;;;;;45.73;41.37;;;5.30;99.90;;;;;;5027842;28;20461;-91
2020/12/21 05:59:03;;;;;;;40.97;37.03;;;5.20;99.90;;;;;;5020829;28;20448;-88
2020/12/21 06:01:30;;;;;;;40.17;36.20;;;5.30;99.90;;;;;;5026548;28;20448;-86
2020/12/21 06:04:00;;;;;;;39.23;35.63;;;5.20;99.90;;;;;;5012209;28;20464;-84
2020/12/21 06:06:28;;;;;;;40.97;37.03;;;5.20;99.90;;;;;;5013414;28;20449;-84
2020/12/21 06:08:57;;;;;;;38.33;34.83;;;5.20;99.90;;;;;;5012648;28;20490;-84
2020/12/21 06:11:25;;;;;;;39.83;36.13;;;5.30;99.90;;;;;;5011499;28;20464;-83
2020/12/21 06:13:56;;;;;;;39.60;35.90;;;5.30;99.90;;;;;;5014445;28;20455;-87
2020/12/21 06:16:24;;;;;;;43.83;39.90;;;5.40;99.90;;;;;;5020901;28;20456;-87
2020/12/21 06:19:02;;;;;;;40.60;36.90;;;5.40;99.90;;;;;;5028085;28;20441;-90
2020/12/21 06:21:29;;;;;;;37.87;34.53;;;5.50;99.90;;;;;;5034204;28;20553;-87
2020/12/21 06:23:56;;;;;;;39.30;35.70;;;5.50;99.90;;;;;;5035360;28;20462;-90
2020/12/21 06:26:33;;;;;;;38.40;34.97;;;5.50;99.90;;;;;;5028455;28;20446;-89
2020/12/21 06:29:02;;;;;;;37.30;33.93;;;5.40;99.90;;;;;;5018959;28;20483;-89
2020/12/21 06:31:41;;;;;;;36.53;33.40;;;5.40;99.90;;;;;;5018825;28;20455;-92
2020/12/21 06:34:10;;;;;;;38.33;35.30;;;5.40;99.90;;;;;;5016820;28;20491;-89
2020/12/21 06:36:36;;;;;;;39.63;35.80;;;5.40;99.90;;;;;;5026042;28;20454;-90
2020/12/21 06:39:05;;;;;;;36.90;33.70;;;5.40;99.90;;;;;;5015932;28;20465;-82
2020/12/21 06:41:31;;;;;;;36.40;33.07;;;5.30;99.90;;;;;;5012249;28;20452;-78
2020/12/21 06:44:00;;;;;;;37.10;33.63;;;5.30;99.90;;;;;;5011463;28;20463;-84
2020/12/21 06:46:27;;;;;;;37.70;34.03;;;5.30;99.90;;;;;;5013271;28;21022;-83
2020/12/21 06:49:08;;;;;;;35.23;32.17;;;5.20;99.90;;;;;;5013274;28;20588;-79
2020/12/21 06:51:35;;;;;;;29.60;27.40;;;5.10;99.90;;;;;;5010552;28;20486;-84
2020/12/21 06:54:03;;;;;;;34.50;31.50;;;5.10;99.90;;;;;;5011065;28;20449;-83
2020/12/21 06:56:30;;;;;;;35.40;32.27;;;5.00;99.90;;;;;;5010789;28;20451;-81
2020/12/21 06:58:56;;;;;;;35.27;29.33;;;5.00;99.90;;;;;;5008806;28;20442;-81
2020/12/21 07:01:26;;;;;;;34.00;30.70;;;4.90;99.90;;;;;;5010958;28;20456;-81
2020/12/21 07:03:52;;;;;;;33.50;30.37;;;4.90;99.90;;;;;;5010953;28;20455;-82
2020/12/21 07:06:19;;;;;;;34.57;31.53;;;4.90;99.90;;;;;;5011172;28;20469;-82
2020/12/21 07:08:46;;;;;;;32.57;29.70;;;4.90;99.90;;;;;;5010869;28;20477;-81
2020/12/21 07:11:17;;;;;;;35.17;31.90;;;4.90;99.90;;;;;;5010913;28;20520;-82
2020/12/21 07:13:44;;;;;;;33.50;30.90;;;4.90;99.90;;;;;;5010879;28;20647;-81
2020/12/21 07:16:11;;;;;;;33.17;30.27;;;4.90;99.90;;;;;;5011037;28;20814;-81
2020/12/21 07:18:38;;;;;;;30.27;27.77;;;5.00;99.90;;;;;;5010973;28;20512;-81
2020/12/21 07:21:09;;;;;;;30.50;27.70;;;5.00;99.90;;;;;;5011073;28;20461;-80
2020/12/21 07:23:35;;;;;;;29.00;26.13;;;5.00;99.90;;;;;;5010661;28;20463;-80
2020/12/21 07:26:02;;;;;;;28.40;26.07;;;5.00;99.90;;;;;;5010511;28;20450;-80
2020/12/21 07:28:28;;;;;;;27.70;25.30;;;5.10;99.90;;;;;;5010782;28;20487;-80
2020/12/21 07:31:07;;;;;;;30.10;27.40;;;5.20;99.90;;;;;;5010834;28;20483;-80
2020/12/21 07:33:35;;;;;;;28.23;25.73;;;5.20;99.90;;;;;;5011612;28;20462;-80
2020/12/21 07:36:03;;;;;;;27.63;25.50;;;5.30;99.90;;;;;;5009938;28;20966;-81
2020/12/21 07:38:30;;;;;;;27.40;24.70;;;5.30;99.90;;;;;;5010576;28;20462;-81
2020/12/21 07:40:58;;;;;;;29.70;26.97;;;5.30;99.90;;;;;;5010588;28;20457;-79
2020/12/21 07:43:38;;;;;;;26.03;23.87;;;5.30;99.90;;;;;;5010544;28;20568;-82
2020/12/21 07:46:26;;;;;;;28.13;25.40;;;5.20;99.90;;;;;;5010513;28;20510;-80
2020/12/21 07:48:55;;;;;;;27.83;25.43;;;5.20;99.90;;;;;;5008416;28;20490;-80
2020/12/21 07:51:23;;;;;;;26.27;23.87;;;5.20;99.90;;;;;;5010171;28;20545;-80
2020/12/21 07:53:50;;;;;;;26.40;23.87;;;5.20;99.90;;;;;;5010448;28;20452;-80
2020/12/21 07:56:17;;;;;;;24.27;22.37;;;5.10;99.90;;;;;;5010209;28;20446;-79
2020/12/21 07:58:44;;;;;;;25.93;23.60;;;5.00;99.90;;;;;;5009782;28;20819;-79
2020/12/21 08:01:10;;;;;;;28.23;25.33;;;4.80;99.90;;;;;;5010097;28;20450;-79
2020/12/21 08:03:38;;;;;;;24.13;21.83;;;4.80;99.90;;;;;;5013010;28;20453;-80
2020/12/21 08:06:10;;;;;;;27.13;24.63;;;4.80;99.90;;;;;;5014281;28;20915;-81
2020/12/21 08:08:38;;;;;;;27.43;24.93;;;4.80;99.90;;;;;;5014168;28;20489;-79
2020/12/21 08:11:06;;;;;;;25.83;23.73;;;4.80;99.90;;;;;;5014353;28;20450;-80
2020/12/21 08:13:32;;;;;;;24.67;22.30;;;4.70;99.90;;;;;;5014335;28;20790;-80
2020/12/21 08:16:06;;;;;;;27.00;24.63;;;4.70;99.90;;;;;;5014332;28;20455;-80
2020/12/21 08:18:32;;;;;;;25.53;23.03;;;4.70;99.90;;;;;;5014043;28;20441;-80
2020/12/21 08:20:59;;;;;;;27.43;25.03;;;4.70;99.90;;;;;;5013918;28;20456;-79
2020/12/21 08:23:27;;;;;;;26.10;24.00;;;4.80;99.90;;;;;;5013823;28;20469;-80
2020/12/21 08:25:54;;;;;;;27.23;24.87;;;4.80;99.90;;;;;;5013850;28;20456;-80
2020/12/21 08:28:36;;;;;;;28.60;26.00;;;4.80;99.90;;;;;;5014045;28;20513;-80
2020/12/21 08:31:18;;;;;;;27.83;25.23;;;4.90;99.90;;;;;;5014157;28;20447;-80
2020/12/21 08:33:57;;;;;;;28.63;26.13;;;5.00;99.90;;;;;;5033953;28;20481;-81
2020/12/21 08:36:26;;;;;;;25.20;23.10;;;5.10;99.90;;;;;;5032666;28;20456;-81
2020/12/21 08:38:53;;;;;;;25.97;23.73;;;5.20;99.90;;;;;;5016940;28;20443;-82
2020/12/21 08:41:20;;;;;;;25.43;23.10;;;5.20;99.90;;;;;;5014425;28;20609;-83
2020/12/21 08:43:47;;;;;;;24.90;22.47;;;5.30;99.90;;;;;;5013952;28;20478;-82
2020/12/21 08:46:14;;;;;;;26.67;24.20;;;5.20;99.90;;;;;;5013666;28;20452;-82
2020/12/21 08:48:42;;;;;;;27.97;25.47;;;5.20;99.90;;;;;;5013374;28;20486;-82
2020/12/21 08:51:09;;;;;;;24.60;22.27;;;5.30;99.90;;;;;;5013007;28;20898;-82
2020/12/21 08:53:35;;;;;;;25.87;23.77;;;5.40;99.90;;;;;;5014559;28;20478;-81
2020/12/21 08:56:09;;;;;;;25.53;23.33;;;5.50;99.90;;;;;;5013333;28;20458;-81
2020/12/21 08:58:36;;;;;;;27.93;25.30;;;5.50;99.90;;;;;;5013763;28;20447;-81
2020/12/21 09:01:04;;;;;;;25.30;23.10;;;5.60;99.90;;;;;;5013340;28;20457;-81
2020/12/21 09:03:30;;;;;;;24.33;22.33;;;5.60;99.90;;;;;;5012970;28;20549;-81
2020/12/21 09:05:57;;;;;;;23.80;22.00;;;5.60;99.90;;;;;;5013500;28;20460;-79
2020/12/21 09:08:23;;;;;;;25.87;23.57;;;5.70;99.90;;;;;;5012880;28;20452;-81
2020/12/21 09:10:49;;;;;;;23.53;21.23;;;5.70;99.90;;;;;;5013095;28;20464;-81
2020/12/21 09:13:16;;;;;;;22.70;20.60;;;5.80;99.90;;;;;;5013099;28;20475;-81
2020/12/21 09:15:43;;;;;;;22.53;20.37;;;5.80;99.90;;;;;;5012074;28;20459;-81
2020/12/21 09:18:09;;;;;;;23.10;21.43;;;5.80;99.90;;;;;;5012623;28;20514;-82
2020/12/21 09:20:35;;;;;;;27.60;24.53;;;6.00;99.90;;;;;;5013095;28;20494;-81
2020/12/21 09:23:02;;;;;;;22.30;20.17;;;6.00;99.90;;;;;;5012738;28;20460;-81
2020/12/21 09:25:28;;;;;;;23.53;21.80;;;6.00;99.90;;;;;;5023566;28;20474;-81
2020/12/21 09:27:54;;;;;;;23.57;21.53;;;6.10;99.90;;;;;;5018022;28;20455;-81
2020/12/21 09:30:20;;;;;;;25.13;23.07;;;6.20;99.90;;;;;;5032763;28;20495;-81
2020/12/21 09:32:47;;;;;;;25.60;23.17;;;6.30;99.90;;;;;;5022586;28;20454;-82
2020/12/21 09:35:13;;;;;;;24.30;22.20;;;6.30;99.90;;;;;;5012787;28;20542;-81
2020/12/21 09:37:40;;;;;;;26.13;23.63;;;6.30;99.90;;;;;;5012930;28;20459;-81
2020/12/21 09:40:06;;;;;;;24.87;22.87;;;6.40;99.90;;;;;;5012970;28;20484;-80
2020/12/21 09:42:32;;;;;;;24.80;22.73;;;6.60;99.90;;;;;;5032447;28;20452;-81
2020/12/21 09:44:58;;;;;;;23.53;21.43;;;6.70;99.90;;;;;;5032419;28;20802;-82
2020/12/21 09:47:25;;;;;;;22.53;20.67;;;6.70;99.90;;;;;;5032273;28;20451;-79
2020/12/21 09:49:52;;;;;;;23.00;21.20;;;6.80;99.90;;;;;;5032195;28;20491;-80
2020/12/21 09:52:18;;;;;;;22.63;20.93;;;6.90;99.90;;;;;;5032470;28;20815;-79
2020/12/21 09:54:44;;;;;;;22.13;20.50;;;6.90;99.90;;;;;;5032200;28;20863;-79
2020/12/21 09:57:10;;;;;;;22.87;21.00;;;6.90;99.90;;;;;;5031752;28;20441;-81
2020/12/21 09:59:36;;;;;;;22.17;20.17;;;6.90;99.90;;;;;;5012299;28;20461;-81
2020/12/21 10:02:06;;;;;;;20.90;19.20;;;6.80;99.90;;;;;;5012315;28;20519;-80
2020/12/21 10:04:32;;;;;;;21.60;19.70;;;6.80;99.90;;;;;;5012196;28;20939;-79
2020/12/21 10:06:59;;;;;;;20.83;19.03;;;6.80;99.90;;;;;;5012179;28;21020;-79
2020/12/21 10:09:25;;;;;;;19.97;18.27;;;6.90;99.90;;;;;;5012091;28;20496;-80
2020/12/21 10:11:52;;;;;;;20.17;18.57;;;6.80;99.90;;;;;;5012136;28;20460;-80
2020/12/21 10:14:18;;;;;;;20.57;19.10;;;6.90;99.90;;;;;;5030279;28;20448;-79
2020/12/21 10:16:44;;;;;;;18.53;17.10;;;7.00;99.90;;;;;;5026181;28;20493;-79
2020/12/21 10:19:10;;;;;;;18.60;17.20;;;7.00;99.90;;;;;;5022521;28;20930;-78
2020/12/21 10:21:38;;;;;;;17.90;16.60;;;7.00;99.90;;;;;;5019224;28;20453;-78
2020/12/21 10:24:05;;;;;;;19.80;18.17;;;7.00;99.90;;;;;;5012055;28;20455;-77
2020/12/21 10:26:32;;;;;;;23.87;21.53;;;6.80;99.90;;;;;;5028411;28;20453;-78
2020/12/21 10:28:58;;;;;;;22.37;20.57;;;6.80;99.90;;;;;;5031364;28;20614;-78
2020/12/21 10:31:29;;;;;;;19.73;18.03;;;6.90;99.90;;;;;;5031206;28;20457;-77
2020/12/21 10:33:55;;;;;;;21.70;19.70;;;7.10;99.90;;;;;;5025590;28;20483;-77
2020/12/21 10:36:21;;;;;;;19.90;17.83;;;7.10;99.90;;;;;;5031370;28;20452;-78
2020/12/21 10:38:49;;;;;;;18.87;17.33;;;7.10;99.90;;;;;;5031227;28;20456;-78
2020/12/21 10:41:17;;;;;;;18.60;17.10;;;7.30;99.90;;;;;;5030917;28;20453;-75
2020/12/21 10:43:43;;;;;;;20.50;18.50;;;7.40;99.90;;;;;;5031035;28;20844;-77
2020/12/21 10:46:10;;;;;;;19.33;17.90;;;7.40;99.90;;;;;;5026607;28;20507;-77
2020/12/21 10:48:36;;;;;;;18.50;17.03;;;7.30;99.90;;;;;;5034162;28;20448;-77
2020/12/21 10:51:02;;;;;;;18.53;17.10;;;7.20;99.90;;;;;;5032540;28;20480;-78
2020/12/21 10:53:28;;;;;;;19.57;17.87;;;7.10;99.90;;;;;;5031069;28;20456;-78
2020/12/21 10:55:55;;;;;;;19.33;17.43;;;7.20;99.90;;;;;;5030802;28;20457;-78
2020/12/21 10:58:22;;;;;;;20.07;18.03;;;7.20;99.90;;;;;;5030538;28;20453;-76
2020/12/21 11:00:48;;;;;;;22.60;18.27;;;7.20;99.90;;;;;;5028846;28;20496;-79
2020/12/21 11:03:14;;;;;;;22.07;20.07;;;7.20;99.90;;;;;;5015867;28;20458;-77
2020/12/21 11:05:40;;;;;;;18.23;16.73;;;7.20;99.90;;;;;;5016628;28;20864;-77
2020/12/21 11:08:07;;;;;;;18.17;16.70;;;7.20;99.90;;;;;;5030764;28;20872;-78
2020/12/21 11:10:33;;;;;;;17.20;16.00;;;7.20;99.90;;;;;;5019961;28;20499;-79
2020/12/21 11:13:00;;;;;;;20.23;18.87;;;7.20;99.90;;;;;;5011090;28;20453;-78
2020/12/21 11:15:27;;;;;;;18.20;16.67;;;7.20;99.90;;;;;;5010749;28;20458;-78
2020/12/21 11:17:53;;;;;;;18.50;17.10;;;7.30;99.90;;;;;;5026232;28;20469;-78
2020/12/21 11:20:19;;;;;;;18.50;17.20;;;7.30;99.90;;;;;;5030600;28;20464;-78
2020/12/21 11:22:46;;;;;;;17.90;16.40;;;7.40;99.90;;;;;;5030449;28;20560;-78
2020/12/21 11:25:13;;;;;;;18.13;16.77;;;7.40;99.90;;;;;;5030283;28;20453;-78
2020/12/21 11:27:42;;;;;;;17.63;16.30;;;7.40;99.90;;;;;;5030275;28;20463;-78
2020/12/21 11:30:08;;;;;;;19.90;18.30;;;7.50;99.90;;;;;;5030247;28;20487;-77
2020/12/21 11:32:37;;;;;;;18.80;17.43;;;7.50;99.90;;;;;;5029698;28;20973;-78
2020/12/21 11:35:03;;;;;;;19.03;17.53;;;7.60;99.90;;;;;;5029962;28;20811;-78
2020/12/21 11:37:29;;;;;;;18.93;17.60;;;7.70;99.90;;;;;;5029837;28;20449;-77
2020/12/21 11:39:55;;;;;;;18.07;16.77;;;7.70;99.90;;;;;;5030192;28;20456;-77
2020/12/21 11:42:21;;;;;;;20.90;18.90;;;7.70;99.90;;;;;;5030344;28;20457;-77
2020/12/21 11:44:48;;;;;;;22.03;20.43;;;7.80;99.90;;;;;;5030128;28;20449;-78
2020/12/21 11:47:14;;;;;;;20.30;18.40;;;7.90;99.90;;;;;;5029857;28;21012;-78
2020/12/21 11:49:41;;;;;;;19.47;17.83;;;7.90;99.90;;;;;;5029451;28;20493;-79
2020/12/21 11:52:07;;;;;;;20.60;18.90;;;7.80;99.90;;;;;;5029823;28;20856;-78
2020/12/21 11:54:34;;;;;;;20.30;18.70;;;7.70;99.90;;;;;;5030145;28;20460;-78
2020/12/21 11:57:00;;;;;;;19.63;18.00;;;7.70;99.90;;;;;;5029780;28;20457;-79
2020/12/21 11:59:27;;;;;;;19.83;18.17;;;7.70;99.90;;;;;;5029894;28;20973;-79
2020/12/21 12:01:58;;;;;;;20.17;18.77;;;7.80;99.90;;;;;;5028255;28;20488;-79
2020/12/21 12:04:24;;;;;;;20.70;18.93;;;7.80;99.90;;;;;;5029540;28;20545;-80
2020/12/21 12:06:53;;;;;;;19.47;17.90;;;7.80;99.90;;;;;;5029952;28;20452;-80
2020/12/21 12:09:20;;;;;;;19.30;18.00;;;7.60;99.90;;;;;;5030121;28;20485;-79
2020/12/21 12:11:46;;;;;;;18.60;17.20;;;7.70;99.90;;;;;;5029734;28;20448;-79
2020/12/21 12:14:12;;;;;;;18.10;16.60;;;7.70;99.90;;;;;;5029774;28;20449;-82
2020/12/21 12:16:39;;;;;;;19.77;18.30;;;7.80;99.90;;;;;;5029825;28;20819;-79
2020/12/21 12:19:05;;;;;;;20.03;18.43;;;7.90;99.90;;;;;;5030341;28;20464;-79
2020/12/21 12:21:31;;;;;;;21.70;19.90;;;8.00;99.90;;;;;;5030179;28;20453;-79
2020/12/21 12:23:58;;;;;;;21.60;20.00;;;8.10;99.90;;;;;;5030066;28;20845;-79
2020/12/21 12:26:26;;;;;;;24.37;21.80;;;8.10;99.90;;;;;;5030052;28;20456;-80
2020/12/21 12:28:53;;;;;;;21.47;19.43;;;8.00;99.90;;;;;;5029847;28;20484;-79
2020/12/21 12:31:20;;;;;;;22.80;20.80;;;7.90;99.90;;;;;;5030225;28;20451;-79
2020/12/21 12:33:47;;;;;;;20.80;18.80;;;7.90;99.90;;;;;;5029640;28;20519;-80
2020/12/21 12:36:16;;;;;;;21.37;19.87;;;8.00;99.90;;;;;;5029941;28;20519;-79
2020/12/21 12:38:42;;;;;;;21.70;19.90;;;8.10;99.90;;;;;;5029607;28;20465;-80
2020/12/21 12:41:09;;;;;;;20.23;18.53;;;8.20;99.90;;;;;;5029997;28;20674;-80
2020/12/21 12:43:36;;;;;;;21.10;19.10;;;8.30;99.90;;;;;;5030017;28;20522;-79
2020/12/21 12:46:02;;;;;;;16.77;15.30;;;8.40;99.90;;;;;;5029867;28;20445;-79
2020/12/21 12:48:29;;;;;;;17.70;16.40;;;8.50;99.90;;;;;;5029707;28;20526;-79
2020/12/21 12:50:55;;;;;;;17.77;16.27;;;8.70;99.90;;;;;;5032092;28;20493;-79
2020/12/21 12:53:21;;;;;;;17.90;16.63;;;8.90;99.90;;;;;;5033331;28;20452;-79
2020/12/21 12:55:47;;;;;;;17.40;16.17;;;9.10;99.90;;;;;;5033169;28;20822;-79
2020/12/21 12:58:14;;;;;;;15.67;14.57;;;9.30;99.90;;;;;;5033213;28;20448;-79
2020/12/21 13:00:40;;;;;;;19.00;17.40;;;9.40;99.90;;;;;;5033207;28;20962;-80
2020/12/21 13:03:07;;;;;;;16.57;15.37;;;9.50;99.90;;;;;;5033121;28;20460;-80
2020/12/21 13:05:34;;;;;;;16.50;15.50;;;9.50;99.90;;;;;;5046112;28;20445;-80
2020/12/21 13:08:00;;;;;;;16.93;15.73;;;9.50;99.90;;;;;;5043847;28;20456;-79
2020/12/21 13:10:26;;;;;;;18.00;16.70;;;9.60;99.90;;;;;;5035900;28;20485;-81
2020/12/21 13:12:53;;;;;;;19.27;17.57;;;9.60;99.90;;;;;;5034382;28;20448;-80
2020/12/21 13:15:19;;;;;;;19.40;18.00;;;9.30;99.90;;;;;;5033232;28;20461;-80
2020/12/21 13:17:46;;;;;;;21.00;19.37;;;9.10;99.90;;;;;;5033145;28;20456;-80
2020/12/21 13:20:12;;;;;;;19.20;17.90;;;9.00;99.90;;;;;;5033256;28;20437;-81
2020/12/21 13:22:38;;;;;;;19.67;18.07;;;8.80;99.90;;;;;;5032824;28;20453;-82
2020/12/21 13:25:04;;;;;;;20.07;18.23;;;8.90;99.90;;;;;;5033205;28;20523;-80
2020/12/21 13:27:31;;;;;;;18.37;16.73;;;9.10;99.90;;;;;;5032669;28;20460;-80
2020/12/21 13:29:57;;;;;;;21.03;19.30;;;9.20;99.90;;;;;;5032682;28;21137;-81
2020/12/21 13:32:24;;;;;;;21.13;19.20;;;8.90;99.90;;;;;;5032687;28;20452;-78
2020/12/21 13:34:51;;;;;;;21.60;19.73;;;8.80;99.90;;;;;;5032628;28;20453;-80
2020/12/21 13:37:17;;;;;;;19.47;17.77;;;8.70;99.90;;;;;;5032781;28;20461;-80
2020/12/21 13:39:43;;;;;;;20.00;18.50;;;8.60;99.90;;;;;;5029499;28;20804;-81
2020/12/21 13:42:09;;;;;;;22.13;19.50;;;8.60;99.90;;;;;;5032233;28;20453;-80
2020/12/21 13:44:35;;;;;;;19.33;17.83;;;8.50;99.90;;;;;;5032595;28;20540;-81
2020/12/21 13:47:02;;;;;;;20.40;18.30;;;8.40;99.90;;;;;;5031978;28;20460;-81
2020/12/21 13:49:29;;;;;;;21.87;20.10;;;8.40;99.90;;;;;;5031726;28;20547;-80
2020/12/21 13:51:55;;;;;;;19.07;17.40;;;8.50;99.90;;;;;;5031892;28;20849;-81
2020/12/21 13:54:21;;;;;;;18.57;17.20;;;8.50;99.90;;;;;;5032297;28;20453;-80
2020/12/21 13:56:47;;;;;;;17.93;16.63;;;8.60;99.90;;;;;;5032178;28;20461;-79
2020/12/21 13:59:13;;;;;;;20.20;18.70;;;8.60;99.90;;;;;;5031933;28;20514;-80
2020/12/21 14:01:40;;;;;;;17.43;16.27;;;8.60;99.90;;;;;;5031634;28;20460;-80
2020/12/21 14:04:06;;;;;;;20.17;18.20;;;8.70;99.90;;;;;;5031850;28;20503;-80
2020/12/21 14:06:33;;;;;;;17.10;15.77;;;8.70;99.90;;;;;;5031638;28;21415;-80
2020/12/21 14:09:00;;;;;;;17.27;15.77;;;8.80;99.90;;;;;;5031480;28;20438;-80
2020/12/21 14:11:26;;;;;;;17.07;15.87;;;8.90;99.90;;;;;;5031686;28;20548;-80
2020/12/21 14:13:53;;;;;;;17.43;15.63;;;8.90;99.90;;;;;;5031666;28;20449;-80
2020/12/21 14:16:21;;;;;;;19.03;16.73;;;9.00;99.90;;;;;;5031958;28;20467;-81
2020/12/21 14:18:48;;;;;;;18.77;17.47;;;9.10;99.90;;;;;;5031749;28;20453;-80
2020/12/21 14:21:15;;;;;;;19.87;18.10;;;9.30;99.90;;;;;;5031570;28;20441;-80
2020/12/21 14:23:42;;;;;;;17.83;16.50;;;9.20;99.90;;;;;;5031340;28;20465;-80
2020/12/21 14:26:11;;;;;;;16.83;15.33;;;9.20;99.90;;;;;;5031267;28;20463;-80
2020/12/21 14:28:39;;;;;;;16.93;15.53;;;9.20;99.90;;;;;;5031380;28;20457;-81
2020/12/21 14:31:10;;;;;;;17.87;16.13;;;9.10;99.90;;;;;;5031540;28;20492;-80
2020/12/21 14:33:36;;;;;;;17.20;15.90;;;9.00;99.90;;;;;;5031021;28;20449;-81
2020/12/21 14:36:02;;;;;;;20.13;18.17;;;9.00;99.90;;;;;;5029022;28;20565;-81
2020/12/21 14:38:29;;;;;;;19.43;18.10;;;9.00;99.90;;;;;;5021315;28;20819;-80
2020/12/21 14:40:58;;;;;;;16.93;15.63;;;9.00;99.90;;;;;;5021315;28;20496;-80
2020/12/21 14:43:24;;;;;;;18.23;16.83;;;9.00;99.90;;;;;;5019908;28;20434;-81
2020/12/21 14:45:51;;;;;;;18.50;17.00;;;9.10;99.90;;;;;;5021417;28;20495;-81
2020/12/21 14:48:18;;;;;;;18.80;17.40;;;9.10;99.90;;;;;;5027001;28;20504;-80
2020/12/21 14:50:45;;;;;;;18.40;16.83;;;9.20;99.90;;;;;;5030500;28;20550;-80
2020/12/21 14:53:11;;;;;;;18.97;17.53;;;9.10;99.90;;;;;;5030903;28;20457;-79
2020/12/21 14:55:40;;;;;;;19.27;18.07;;;9.10;99.90;;;;;;5031188;28;20459;-80
2020/12/21 14:58:07;;;;;;;19.33;18.13;;;9.00;99.90;;;;;;5031212;28;20456;-80
2020/12/21 15:00:34;;;;;;;19.87;17.87;;;8.80;99.90;;;;;;5030990;28;20449;-80
2020/12/21 15:03:00;;;;;;;18.63;17.10;;;8.70;99.90;;;;;;5030599;28;20449;-80
2020/12/21 15:05:26;;;;;;;21.40;19.33;;;8.70;99.90;;;;;;5030783;28;20491;-79
2020/12/21 15:07:52;;;;;;;19.30;18.00;;;8.70;99.90;;;;;;5030867;28;20453;-80
2020/12/21 15:10:19;;;;;;;17.90;16.90;;;8.90;99.90;;;;;;5030911;28;20488;-80
2020/12/21 15:12:45;;;;;;;20.40;18.90;;;8.90;99.90;;;;;;5029533;28;20453;-79
2020/12/21 15:15:13;;;;;;;18.77;17.40;;;8.90;99.90;;;;;;5021244;28;21038;-79
2020/12/21 15:17:39;;;;;;;20.10;18.40;;;8.80;99.90;;;;;;5010800;28;20865;-78
2020/12/21 15:20:05;;;;;;;20.20;18.77;;;8.80;99.90;;;;;;5011194;28;20456;-79
2020/12/21 15:22:31;;;;;;;21.00;19.50;;;8.90;99.90;;;;;;5010712;28;20446;-78
2020/12/21 15:24:58;;;;;;;20.50;19.17;;;8.90;99.90;;;;;;5011020;28;20453;-79
2020/12/21 15:27:24;;;;;;;22.17;20.17;;;8.90;99.90;;;;;;5010715;28;20446;-79
2020/12/21 15:29:54;;;;;;;22.20;20.60;;;8.80;99.90;;;;;;5017702;28;20485;-79
2020/12/21 15:32:21;;;;;;;21.50;19.70;;;8.90;99.90;;;;;;5016808;28;20458;-78
2020/12/21 15:34:49;;;;;;;20.10;18.50;;;8.80;99.90;;;;;;5012449;28;20875;-79
2020/12/21 15:37:16;;;;;;;21.53;19.97;;;8.90;99.90;;;;;;5010552;28;20490;-79
2020/12/21 15:39:42;;;;;;;24.27;22.23;;;8.90;99.90;;;;;;5010096;28;20979;-79
2020/12/21 15:42:08;;;;;;;22.73;21.13;;;8.90;99.90;;;;;;5010339;28;20449;-80
2020/12/21 15:44:34;;;;;;;21.83;19.80;;;8.80;99.90;;;;;;5010684;28;20480;-80
2020/12/21 15:47:00;;;;;;;18.67;17.27;;;8.80;99.90;;;;;;5010522;28;20465;-80
2020/12/21 15:49:27;;;;;;;20.57;19.17;;;8.80;99.90;;;;;;5010232;28;20493;-79
2020/12/21 15:51:54;;;;;;;21.00;19.40;;;8.80;99.90;;;;;;5010228;28;20885;-80
2020/12/21 15:54:20;;;;;;;20.50;18.67;;;8.80;99.90;;;;;;5010242;28;20454;-79
2020/12/21 15:56:47;;;;;;;20.63;19.00;;;8.70;99.90;;;;;;5010518;28;20454;-79
2020/12/21 15:59:13;;;;;;;20.40;18.80;;;8.70;99.90;;;;;;5010059;28;20636;-80
2020/12/21 16:01:39;;;;;;;20.30;18.57;;;8.80;99.90;;;;;;5010736;28;20943;-80
2020/12/21 16:04:05;;;;;;;20.50;18.03;;;8.80;99.90;;;;;;5010711;28;20795;-80
2020/12/21 16:06:32;;;;;;;19.87;18.10;;;8.80;99.90;;;;;;5010595;28;20461;-80
2020/12/21 16:08:58;;;;;;;19.40;17.23;;;8.80;99.90;;;;;;5010512;28;20445;-80
2020/12/21 16:11:25;;;;;;;17.50;16.20;;;8.80;99.90;;;;;;5010499;28;20947;-79
2020/12/21 16:13:51;;;;;;;18.30;17.00;;;8.80;99.90;;;;;;5010785;28;20458;-81
2020/12/21 16:16:17;;;;;;;18.97;17.50;;;8.90;99.90;;;;;;5011271;28;20458;-80
2020/12/21 16:18:43;;;;;;;18.87;17.57;;;9.00;99.90;;;;;;5010541;28;20446;-79
2020/12/21 16:21:09;;;;;;;17.67;16.47;;;9.00;99.90;;;;;;5010537;28;20450;-79
2020/12/21 16:23:36;;;;;;;17.57;16.30;;;9.10;99.90;;;;;;5010607;28;20459;-80
2020/12/21 16:26:02;;;;;;;18.00;16.70;;;9.10;99.90;;;;;;5012188;28;20984;-80
2020/12/21 16:28:29;;;;;;;16.73;15.53;;;9.20;99.90;;;;;;5013999;28;20458;-80
2020/12/21 16:30:55;;;;;;;17.33;16.10;;;9.20;99.90;;;;;;5013816;28;20496;-80
2020/12/21 16:33:21;;;;;;;16.40;15.10;;;9.40;99.90;;;;;;5013898;28;20454;-79
2020/12/21 16:35:52;;;;;;;17.70;16.47;;;9.30;99.90;;;;;;5014048;28;20531;-79
2020/12/21 16:38:18;;;;;;;16.57;15.27;;;9.30;99.90;;;;;;5014051;28;20817;-79
2020/12/21 16:40:46;;;;;;;17.40;16.17;;;9.40;99.90;;;;;;5014005;28;20484;-79
2020/12/21 16:43:12;;;;;;;15.13;14.13;;;9.40;99.90;;;;;;5014213;28;20508;-80
2020/12/21 16:45:38;;;;;;;16.47;15.23;;;9.40;99.90;;;;;;5013844;28;20498;-84
2020/12/21 16:48:04;;;;;;;15.70;14.70;;;9.50;99.90;;;;;;5014244;28;20472;-86
2020/12/21 16:50:31;;;;;;;16.53;15.70;;;9.50;99.90;;;;;;5013412;28;20516;-82
2020/12/21 16:52:57;;;;;;;17.60;16.57;;;9.40;99.90;;;;;;5013747;28;20645;-79
2020/12/21 16:55:23;;;;;;;16.50;15.50;;;9.40;99.90;;;;;;5005763;28;20465;-78
2020/12/21 16:57:50;;;;;;;17.10;16.20;;;9.30;99.90;;;;;;5013798;28;20519;-78
2020/12/21 17:00:16;;;;;;;16.60;15.67;;;9.30;99.90;;;;;;5013515;28;20461;-80
2020/12/21 17:02:42;;;;;;;16.17;15.10;;;9.30;99.90;;;;;;5013464;28;20817;-81
2020/12/21 17:05:09;;;;;;;15.40;14.47;;;9.40;99.90;;;;;;5013742;28;20445;-81
2020/12/21 17:07:35;;;;;;;16.20;15.10;;;9.50;99.90;;;;;;5013541;28;21018;-82
2020/12/21 17:10:01;;;;;;;14.73;13.63;;;9.40;99.90;;;;;;5013358;28;20477;-83
2020/12/21 17:12:27;;;;;;;14.27;13.37;;;9.50;99.90;;;;;;5013292;28;20615;-82
2020/12/21 17:14:54;;;;;;;14.30;13.43;;;9.50;99.90;;;;;;5013184;28;20465;-82
2020/12/21 17:17:20;;;;;;;13.77;12.97;;;9.60;99.90;;;;;;5013503;28;20821;-81
2020/12/21 17:19:50;;;;;;;12.87;12.17;;;9.70;99.90;;;;;;5013301;28;20453;-82
2020/12/21 17:22:16;;;;;;;13.63;12.83;;;9.70;99.90;;;;;;5013392;28;20541;-83
2020/12/21 17:24:43;;;;;;;13.70;12.90;;;9.80;99.90;;;;;;5013345;28;20454;-82
2020/12/21 17:27:09;;;;;;;14.40;13.40;;;9.80;99.90;;;;;;5012858;28;20452;-82